sensor_id;sensor_type;location;lat;lon;timestamp;temperature;humidity
28484;DHT22;15704;48.834;8.736;2024-02-26T00:02:08;11.50;94.70
28484;DHT22;15704;48.834;8.736;2024-02-26T00:04:34;11.50;94.70
28484;DHT22;15704;48.834;8.736;2024-02-26T00:07:01;11.40;94.70
28484;DHT22;15704;48.834;8.736;2024-02-26T00:09:28;11.50;94.70
28484;DHT22;15704;48.834;8.736;2024-02-26T00:11:55;11.40;94.70
28484;DHT22;15704;48.834;8.736;2024-02-26T00:14:22;11.50;94.70
28484;DHT22;15704;48.834;8.736;2024-02-26T00:16:48;11.40;94.70
28484;DHT22;15704;48.834;8.736;2024-02-26T00:19:15;11.50;94.70
28484;DHT22;15704;48.834;8.736;2024-02-26T00:21:42;11.50;94.70
28484;DHT22;15704;48.834;8.736;2024-02-26T00:24:09;11.50;94.70
28484;DHT22;15704;48.834;8.736;2024-02-26T00:26:36;11.50;94.70
28484;DHT22;15704;48.834;8.736;2024-02-26T00:29:03;11.50;94.70
28484;DHT22;15704;48.834;8.736;2024-02-26T00:31:30;11.50;94.70
28484;DHT22;15704;48.834;8.736;2024-02-26T00:33:57;11.50;94.70
28484;DHT22;15704;48.834;8.736;2024-02-26T00:36:24;11.50;94.70
28484;DHT22;15704;48.834;8.736;2024-02-26T00:38:51;11.50;94.70
28484;DHT22;15704;48.834;8.736;2024-02-26T00:41:20;11.40;94.60
28484;DHT22;15704;48.834;8.736;2024-02-26T00:43:47;11.50;94.70
28484;DHT22;15704;48.834;8.736;2024-02-26T00:46:14;11.40;94.70
28484;DHT22;15704;48.834;8.736;2024-02-26T00:48:40;11.50;94.70
28484;DHT22;15704;48.834;8.736;2024-02-26T00:51:07;11.50;94.70
28484;DHT22;15704;48.834;8.736;2024-02-26T00:53:35;11.40;94.60
28484;DHT22;15704;48.834;8.736;2024-02-26T00:56:02;11.50;94.70
28484;DHT22;15704;48.834;8.736;2024-02-26T00:58:29;11.40;94.60
28484;DHT22;15704;48.834;8.736;2024-02-26T01:00:56;11.50;94.60
28484;DHT22;15704;48.834;8.736;2024-02-26T01:03:22;11.50;94.70
28484;DHT22;15704;48.834;8.736;2024-02-26T01:05:49;11.40;94.60
28484;DHT22;15704;48.834;8.736;2024-02-26T01:08:18;11.40;94.60
28484;DHT22;15704;48.834;8.736;2024-02-26T01:10:45;11.40;94.60
28484;DHT22;15704;48.834;8.736;2024-02-26T01:13:12;11.50;94.70
28484;DHT22;15704;48.834;8.736;2024-02-26T01:15:38;11.40;94.70
28484;DHT22;15704;48.834;8.736;2024-02-26T01:18:05;11.40;94.60
28484;DHT22;15704;48.834;8.736;2024-02-26T01:20:32;11.40;94.70
28484;DHT22;15704;48.834;8.736;2024-02-26T01:22:59;11.40;94.60
28484;DHT22;15704;48.834;8.736;2024-02-26T01:25:26;11.40;94.60
28484;DHT22;15704;48.834;8.736;2024-02-26T01:27:52;11.50;94.70
28484;DHT22;15704;48.834;8.736;2024-02-26T01:30:19;11.50;94.70
28484;DHT22;15704;48.834;8.736;2024-02-26T01:32:47;11.50;94.60
28484;DHT22;15704;48.834;8.736;2024-02-26T01:35:14;11.50;94.70
28484;DHT22;15704;48.834;8.736;2024-02-26T01:37:41;11.50;94.70
28484;DHT22;15704;48.834;8.736;2024-02-26T01:40:09;11.40;94.60
28484;DHT22;15704;48.834;8.736;2024-02-26T01:42:38;11.40;94.70
28484;DHT22;15704;48.834;8.736;2024-02-26T01:45:05;11.40;94.70
28484;DHT22;15704;48.834;8.736;2024-02-26T01:47:35;11.40;94.70
28484;DHT22;15704;48.834;8.736;2024-02-26T01:50:02;11.40;94.60
28484;DHT22;15704;48.834;8.736;2024-02-26T01:52:29;11.50;94.70
28484;DHT22;15704;48.834;8.736;2024-02-26T01:54:56;11.40;94.60
28484;DHT22;15704;48.834;8.736;2024-02-26T01:57:23;11.50;94.60
28484;DHT22;15704;48.834;8.736;2024-02-26T01:59:50;11.50;94.60
28484;DHT22;15704;48.834;8.736;2024-02-26T02:02:16;11.40;94.60
28484;DHT22;15704;48.834;8.736;2024-02-26T02:04:43;11.40;94.60
28484;DHT22;15704;48.834;8.736;2024-02-26T02:07:10;11.50;94.60
28484;DHT22;15704;48.834;8.736;2024-02-26T02:09:37;11.40;94.60
28484;DHT22;15704;48.834;8.736;2024-02-26T02:12:04;11.40;94.60
28484;DHT22;15704;48.834;8.736;2024-02-26T02:14:32;11.40;95.00
28484;DHT22;15704;48.834;8.736;2024-02-26T02:16:59;11.40;94.60
28484;DHT22;15704;48.834;8.736;2024-02-26T02:19:26;11.40;94.60
28484;DHT22;15704;48.834;8.736;2024-02-26T02:21:53;11.40;94.60
28484;DHT22;15704;48.834;8.736;2024-02-26T02:24:19;11.50;94.60
28484;DHT22;15704;48.834;8.736;2024-02-26T02:26:46;11.40;94.60
28484;DHT22;15704;48.834;8.736;2024-02-26T02:29:14;11.50;94.60
28484;DHT22;15704;48.834;8.736;2024-02-26T02:31:41;11.50;94.60
28484;DHT22;15704;48.834;8.736;2024-02-26T02:34:09;11.50;94.60
28484;DHT22;15704;48.834;8.736;2024-02-26T02:36:48;11.40;94.60
28484;DHT22;15704;48.834;8.736;2024-02-26T02:39:15;11.40;94.60
28484;DHT22;15704;48.834;8.736;2024-02-26T02:41:42;11.40;94.60
28484;DHT22;15704;48.834;8.736;2024-02-26T02:44:09;11.40;94.60
28484;DHT22;15704;48.834;8.736;2024-02-26T02:46:36;11.40;95.00
28484;DHT22;15704;48.834;8.736;2024-02-26T02:49:03;11.40;94.60
28484;DHT22;15704;48.834;8.736;2024-02-26T02:51:30;11.40;94.60
28484;DHT22;15704;48.834;8.736;2024-02-26T02:53:57;11.40;94.60
28484;DHT22;15704;48.834;8.736;2024-02-26T02:56:24;11.40;94.60
28484;DHT22;15704;48.834;8.736;2024-02-26T02:58:50;11.50;94.60
28484;DHT22;15704;48.834;8.736;2024-02-26T03:01:17;11.40;94.60
28484;DHT22;15704;48.834;8.736;2024-02-26T03:03:45;11.50;94.60
28484;DHT22;15704;48.834;8.736;2024-02-26T03:06:11;11.50;94.60
28484;DHT22;15704;48.834;8.736;2024-02-26T03:08:38;11.50;94.60
28484;DHT22;15704;48.834;8.736;2024-02-26T03:11:06;11.40;94.60
28484;DHT22;15704;48.834;8.736;2024-02-26T03:13:33;11.40;94.60
28484;DHT22;15704;48.834;8.736;2024-02-26T03:16:05;11.40;94.60
28484;DHT22;15704;48.834;8.736;2024-02-26T03:18:32;11.40;94.70
28484;DHT22;15704;48.834;8.736;2024-02-26T03:20:59;11.40;94.60
28484;DHT22;15704;48.834;8.736;2024-02-26T03:23:26;11.40;94.60
28484;DHT22;15704;48.834;8.736;2024-02-26T03:25:53;11.40;94.60
28484;DHT22;15704;48.834;8.736;2024-02-26T03:28:20;11.40;94.60
28484;DHT22;15704;48.834;8.736;2024-02-26T03:30:47;11.40;94.60
28484;DHT22;15704;48.834;8.736;2024-02-26T03:33:13;11.40;94.60
28484;DHT22;15704;48.834;8.736;2024-02-26T03:35:40;11.50;95.00
28484;DHT22;15704;48.834;8.736;2024-02-26T03:38:07;11.40;94.60
28484;DHT22;15704;48.834;8.736;2024-02-26T03:40:34;11.40;94.60
28484;DHT22;15704;48.834;8.736;2024-02-26T03:43:01;11.40;94.60
28484;DHT22;15704;48.834;8.736;2024-02-26T03:45:29;11.40;94.70
28484;DHT22;15704;48.834;8.736;2024-02-26T03:47:56;11.40;94.70
28484;DHT22;15704;48.834;8.736;2024-02-26T03:50:23;11.40;94.60
28484;DHT22;15704;48.834;8.736;2024-02-26T03:52:50;11.40;94.60
28484;DHT22;15704;48.834;8.736;2024-02-26T03:55:17;11.40;94.60
28484;DHT22;15704;48.834;8.736;2024-02-26T03:57:47;11.40;94.60
28484;DHT22;15704;48.834;8.736;2024-02-26T04:00:14;11.50;94.70
28484;DHT22;15704;48.834;8.736;2024-02-26T04:02:41;11.40;94.60
28484;DHT22;15704;48.834;8.736;2024-02-26T04:05:12;11.50;94.60
28484;DHT22;15704;48.834;8.736;2024-02-26T04:07:40;11.40;94.60
28484;DHT22;15704;48.834;8.736;2024-02-26T04:10:10;11.40;94.70
28484;DHT22;15704;48.834;8.736;2024-02-26T04:12:41;11.40;94.70
28484;DHT22;15704;48.834;8.736;2024-02-26T04:15:09;11.40;94.70
28484;DHT22;15704;48.834;8.736;2024-02-26T04:17:37;11.40;94.70
28484;DHT22;15704;48.834;8.736;2024-02-26T04:20:04;11.40;94.70
28484;DHT22;15704;48.834;8.736;2024-02-26T04:22:34;11.40;94.70
28484;DHT22;15704;48.834;8.736;2024-02-26T04:25:01;11.40;94.80
28484;DHT22;15704;48.834;8.736;2024-02-26T04:27:27;11.40;94.70
28484;DHT22;15704;48.834;8.736;2024-02-26T04:29:54;11.50;94.70
28484;DHT22;15704;48.834;8.736;2024-02-26T04:32:21;11.50;94.70
28484;DHT22;15704;48.834;8.736;2024-02-26T04:34:48;11.40;94.70
28484;DHT22;15704;48.834;8.736;2024-02-26T04:37:15;11.40;94.70
28484;DHT22;15704;48.834;8.736;2024-02-26T04:39:42;11.40;94.70
28484;DHT22;15704;48.834;8.736;2024-02-26T04:42:09;11.40;94.70
28484;DHT22;15704;48.834;8.736;2024-02-26T04:44:35;11.40;94.70
28484;DHT22;15704;48.834;8.736;2024-02-26T04:47:02;11.40;94.80
28484;DHT22;15704;48.834;8.736;2024-02-26T04:49:29;11.40;94.80
28484;DHT22;15704;48.834;8.736;2024-02-26T04:51:58;11.30;94.80
28484;DHT22;15704;48.834;8.736;2024-02-26T04:54:25;11.40;94.80
28484;DHT22;15704;48.834;8.736;2024-02-26T04:56:52;11.40;94.80
28484;DHT22;15704;48.834;8.736;2024-02-26T04:59:19;11.40;94.70
28484;DHT22;15704;48.834;8.736;2024-02-26T05:01:46;11.40;94.70
28484;DHT22;15704;48.834;8.736;2024-02-26T05:04:12;11.40;94.70
28484;DHT22;15704;48.834;8.736;2024-02-26T05:06:40;11.50;94.80
28484;DHT22;15704;48.834;8.736;2024-02-26T05:09:07;11.50;94.70
28484;DHT22;15704;48.834;8.736;2024-02-26T05:11:34;11.40;94.70
28484;DHT22;15704;48.834;8.736;2024-02-26T05:14:02;11.40;94.70
28484;DHT22;15704;48.834;8.736;2024-02-26T05:16:29;11.40;94.80
28484;DHT22;15704;48.834;8.736;2024-02-26T05:18:57;11.40;94.80
28484;DHT22;15704;48.834;8.736;2024-02-26T05:21:25;11.40;94.70
28484;DHT22;15704;48.834;8.736;2024-02-26T05:23:52;11.40;94.80
28484;DHT22;15704;48.834;8.736;2024-02-26T05:26:20;11.40;94.70
28484;DHT22;15704;48.834;8.736;2024-02-26T05:28:47;11.40;94.70
28484;DHT22;15704;48.834;8.736;2024-02-26T05:31:15;11.40;94.70
28484;DHT22;15704;48.834;8.736;2024-02-26T05:33:42;11.40;94.70
28484;DHT22;15704;48.834;8.736;2024-02-26T05:36:09;11.50;94.70
28484;DHT22;15704;48.834;8.736;2024-02-26T05:38:36;11.50;94.70
28484;DHT22;15704;48.834;8.736;2024-02-26T05:41:03;11.40;94.70
28484;DHT22;15704;48.834;8.736;2024-02-26T05:43:31;11.40;94.70
28484;DHT22;15704;48.834;8.736;2024-02-26T05:45:58;11.40;94.80
28484;DHT22;15704;48.834;8.736;2024-02-26T05:48:25;11.40;95.10
28484;DHT22;15704;48.834;8.736;2024-02-26T05:50:52;11.40;94.80
28484;DHT22;15704;48.834;8.736;2024-02-26T05:53:19;11.40;94.80
28484;DHT22;15704;48.834;8.736;2024-02-26T05:55:46;11.40;94.70
28484;DHT22;15704;48.834;8.736;2024-02-26T05:58:12;11.40;94.70
28484;DHT22;15704;48.834;8.736;2024-02-26T06:00:40;11.40;94.70
28484;DHT22;15704;48.834;8.736;2024-02-26T06:03:07;11.40;94.70
28484;DHT22;15704;48.834;8.736;2024-02-26T06:05:34;11.40;94.70
28484;DHT22;15704;48.834;8.736;2024-02-26T06:08:01;11.40;94.70
28484;DHT22;15704;48.834;8.736;2024-02-26T06:10:29;11.40;94.80
28484;DHT22;15704;48.834;8.736;2024-02-26T06:12:56;11.40;94.80
28484;DHT22;15704;48.834;8.736;2024-02-26T06:15:22;11.40;94.80
28484;DHT22;15704;48.834;8.736;2024-02-26T06:17:49;11.30;94.80
28484;DHT22;15704;48.834;8.736;2024-02-26T06:20:17;11.40;94.80
28484;DHT22;15704;48.834;8.736;2024-02-26T06:22:44;11.30;94.80
28484;DHT22;15704;48.834;8.736;2024-02-26T06:25:11;11.40;94.80
28484;DHT22;15704;48.834;8.736;2024-02-26T06:27:38;11.40;94.80
28484;DHT22;15704;48.834;8.736;2024-02-26T06:30:05;11.40;94.80
28484;DHT22;15704;48.834;8.736;2024-02-26T06:32:32;11.40;94.80
28484;DHT22;15704;48.834;8.736;2024-02-26T06:34:59;11.40;94.80
28484;DHT22;15704;48.834;8.736;2024-02-26T06:37:26;11.40;94.80
28484;DHT22;15704;48.834;8.736;2024-02-26T06:39:53;11.40;94.80
28484;DHT22;15704;48.834;8.736;2024-02-26T06:42:20;11.40;94.80
28484;DHT22;15704;48.834;8.736;2024-02-26T06:44:47;11.40;94.80
28484;DHT22;15704;48.834;8.736;2024-02-26T06:47:13;11.40;94.80
28484;DHT22;15704;48.834;8.736;2024-02-26T06:49:40;11.40;94.80
28484;DHT22;15704;48.834;8.736;2024-02-26T06:52:07;11.40;94.80
28484;DHT22;15704;48.834;8.736;2024-02-26T06:54:34;11.40;94.80
28484;DHT22;15704;48.834;8.736;2024-02-26T06:57:01;11.40;94.80
28484;DHT22;15704;48.834;8.736;2024-02-26T06:59:28;11.40;94.80
28484;DHT22;15704;48.834;8.736;2024-02-26T07:01:54;11.40;94.70
28484;DHT22;15704;48.834;8.736;2024-02-26T07:04:21;11.40;94.80
28484;DHT22;15704;48.834;8.736;2024-02-26T07:06:48;11.40;94.70
28484;DHT22;15704;48.834;8.736;2024-02-26T07:09:15;11.40;94.70
28484;DHT22;15704;48.834;8.736;2024-02-26T07:11:42;11.40;94.80
28484;DHT22;15704;48.834;8.736;2024-02-26T07:14:11;11.40;94.80
28484;DHT22;15704;48.834;8.736;2024-02-26T07:16:38;11.40;94.80
28484;DHT22;15704;48.834;8.736;2024-02-26T07:19:05;11.40;94.80
28484;DHT22;15704;48.834;8.736;2024-02-26T07:21:32;11.40;94.80
28484;DHT22;15704;48.834;8.736;2024-02-26T07:23:59;11.40;94.80
28484;DHT22;15704;48.834;8.736;2024-02-26T07:26:26;11.40;94.80
28484;DHT22;15704;48.834;8.736;2024-02-26T07:28:52;11.40;94.80
28484;DHT22;15704;48.834;8.736;2024-02-26T07:31:19;11.40;94.80
28484;DHT22;15704;48.834;8.736;2024-02-26T07:33:46;11.50;94.80
28484;DHT22;15704;48.834;8.736;2024-02-26T07:36:13;11.50;94.80
28484;DHT22;15704;48.834;8.736;2024-02-26T07:38:40;11.40;94.70
28484;DHT22;15704;48.834;8.736;2024-02-26T07:41:09;11.40;94.80
28484;DHT22;15704;48.834;8.736;2024-02-26T07:43:37;11.40;94.80
28484;DHT22;15704;48.834;8.736;2024-02-26T07:46:04;11.40;94.80
28484;DHT22;15704;48.834;8.736;2024-02-26T07:48:31;11.40;94.80
28484;DHT22;15704;48.834;8.736;2024-02-26T07:50:58;11.40;94.80
28484;DHT22;15704;48.834;8.736;2024-02-26T07:53:26;11.40;94.80
28484;DHT22;15704;48.834;8.736;2024-02-26T07:55:53;11.40;94.70
28484;DHT22;15704;48.834;8.736;2024-02-26T07:58:20;11.50;94.80
28484;DHT22;15704;48.834;8.736;2024-02-26T08:00:47;11.40;94.70
28484;DHT22;15704;48.834;8.736;2024-02-26T08:03:14;11.50;94.80
28484;DHT22;15704;48.834;8.736;2024-02-26T08:05:42;11.40;94.70
28484;DHT22;15704;48.834;8.736;2024-02-26T08:08:10;11.40;94.80
28484;DHT22;15704;48.834;8.736;2024-02-26T08:10:37;11.40;94.80
28484;DHT22;15704;48.834;8.736;2024-02-26T08:13:04;11.40;94.80
28484;DHT22;15704;48.834;8.736;2024-02-26T08:15:34;11.40;94.90
28484;DHT22;15704;48.834;8.736;2024-02-26T08:18:02;11.30;94.90
28484;DHT22;15704;48.834;8.736;2024-02-26T08:20:31;11.40;94.90
28484;DHT22;15704;48.834;8.736;2024-02-26T08:22:58;11.40;94.90
28484;DHT22;15704;48.834;8.736;2024-02-26T08:25:25;11.40;94.80
28484;DHT22;15704;48.834;8.736;2024-02-26T08:27:52;11.50;94.80
28484;DHT22;15704;48.834;8.736;2024-02-26T08:30:19;11.40;94.80
28484;DHT22;15704;48.834;8.736;2024-02-26T08:32:47;11.50;94.80
28484;DHT22;15704;48.834;8.736;2024-02-26T08:35:18;11.50;94.80
28484;DHT22;15704;48.834;8.736;2024-02-26T08:37:46;11.40;94.80
28484;DHT22;15704;48.834;8.736;2024-02-26T08:40:14;11.40;94.80
28484;DHT22;15704;48.834;8.736;2024-02-26T08:42:42;11.40;94.80
28484;DHT22;15704;48.834;8.736;2024-02-26T08:45:09;11.40;94.90
28484;DHT22;15704;48.834;8.736;2024-02-26T08:47:37;11.40;94.90
28484;DHT22;15704;48.834;8.736;2024-02-26T08:50:04;11.40;94.90
28484;DHT22;15704;48.834;8.736;2024-02-26T08:52:31;11.40;94.90
28484;DHT22;15704;48.834;8.736;2024-02-26T08:54:58;11.40;94.90
28484;DHT22;15704;48.834;8.736;2024-02-26T08:57:25;11.40;94.90
28484;DHT22;15704;48.834;8.736;2024-02-26T08:59:54;11.50;94.90
28484;DHT22;15704;48.834;8.736;2024-02-26T09:02:21;11.40;94.80
28484;DHT22;15704;48.834;8.736;2024-02-26T09:04:48;11.50;94.80
28484;DHT22;15704;48.834;8.736;2024-02-26T09:07:14;11.50;94.80
28484;DHT22;15704;48.834;8.736;2024-02-26T09:09:41;11.50;94.80
28484;DHT22;15704;48.834;8.736;2024-02-26T09:12:08;11.50;94.80
28484;DHT22;15704;48.834;8.736;2024-02-26T09:14:35;11.50;94.80
28484;DHT22;15704;48.834;8.736;2024-02-26T09:17:02;11.50;94.80
28484;DHT22;15704;48.834;8.736;2024-02-26T09:19:30;11.50;94.80
28484;DHT22;15704;48.834;8.736;2024-02-26T09:21:57;11.50;94.80
28484;DHT22;15704;48.834;8.736;2024-02-26T09:24:25;11.50;94.80
28484;DHT22;15704;48.834;8.736;2024-02-26T09:26:52;11.50;94.80
28484;DHT22;15704;48.834;8.736;2024-02-26T09:29:19;11.50;94.80
28484;DHT22;15704;48.834;8.736;2024-02-26T09:31:46;11.50;94.80
28484;DHT22;15704;48.834;8.736;2024-02-26T09:34:16;11.50;94.80
28484;DHT22;15704;48.834;8.736;2024-02-26T09:36:43;11.50;94.80
28484;DHT22;15704;48.834;8.736;2024-02-26T09:39:10;11.50;94.70
28484;DHT22;15704;48.834;8.736;2024-02-26T09:41:39;11.60;94.70
28484;DHT22;15704;48.834;8.736;2024-02-26T09:44:06;11.60;94.70
28484;DHT22;15704;48.834;8.736;2024-02-26T09:46:34;11.60;94.80
28484;DHT22;15704;48.834;8.736;2024-02-26T09:49:01;11.60;94.70
28484;DHT22;15704;48.834;8.736;2024-02-26T09:51:28;11.60;94.70
28484;DHT22;15704;48.834;8.736;2024-02-26T09:53:56;11.60;94.70
28484;DHT22;15704;48.834;8.736;2024-02-26T09:56:26;11.60;94.70
28484;DHT22;15704;48.834;8.736;2024-02-26T09:58:54;11.60;94.70
28484;DHT22;15704;48.834;8.736;2024-02-26T10:01:22;11.60;94.70
28484;DHT22;15704;48.834;8.736;2024-02-26T10:03:57;11.60;94.70
28484;DHT22;15704;48.834;8.736;2024-02-26T10:06:26;11.60;94.70
28484;DHT22;15704;48.834;8.736;2024-02-26T10:08:57;11.60;94.70
28484;DHT22;15704;48.834;8.736;2024-02-26T10:11:27;11.60;94.70
28484;DHT22;15704;48.834;8.736;2024-02-26T10:13:54;11.60;94.70
28484;DHT22;15704;48.834;8.736;2024-02-26T10:16:21;11.60;94.70
28484;DHT22;15704;48.834;8.736;2024-02-26T10:18:50;11.60;94.70
28484;DHT22;15704;48.834;8.736;2024-02-26T10:21:28;11.60;94.70
28484;DHT22;15704;48.834;8.736;2024-02-26T10:23:55;11.60;94.70
28484;DHT22;15704;48.834;8.736;2024-02-26T10:26:22;11.60;94.70
28484;DHT22;15704;48.834;8.736;2024-02-26T10:28:49;11.60;94.70
28484;DHT22;15704;48.834;8.736;2024-02-26T10:31:21;11.60;94.70
28484;DHT22;15704;48.834;8.736;2024-02-26T10:33:48;11.60;94.70
28484;DHT22;15704;48.834;8.736;2024-02-26T10:36:16;11.60;94.80
28484;DHT22;15704;48.834;8.736;2024-02-26T10:38:43;11.60;94.90
28484;DHT22;15704;48.834;8.736;2024-02-26T10:41:13;11.60;94.90
28484;DHT22;15704;48.834;8.736;2024-02-26T10:43:42;11.60;94.90
28484;DHT22;15704;48.834;8.736;2024-02-26T10:46:10;11.60;94.90
28484;DHT22;15704;48.834;8.736;2024-02-26T10:48:37;11.60;94.90
28484;DHT22;15704;48.834;8.736;2024-02-26T10:51:04;11.60;94.90
28484;DHT22;15704;48.834;8.736;2024-02-26T10:53:33;11.60;94.90
28484;DHT22;15704;48.834;8.736;2024-02-26T10:56:04;11.70;94.90
28484;DHT22;15704;48.834;8.736;2024-02-26T10:58:32;11.70;94.90
28484;DHT22;15704;48.834;8.736;2024-02-26T11:01:00;11.70;94.80
28484;DHT22;15704;48.834;8.736;2024-02-26T11:03:28;11.70;94.90
28484;DHT22;15704;48.834;8.736;2024-02-26T11:06:00;11.60;94.80
28484;DHT22;15704;48.834;8.736;2024-02-26T11:08:28;11.60;94.90
28484;DHT22;15704;48.834;8.736;2024-02-26T11:10:57;11.60;94.90
28484;DHT22;15704;48.834;8.736;2024-02-26T11:13:27;11.60;94.90
28484;DHT22;15704;48.834;8.736;2024-02-26T11:15:56;11.60;94.90
28484;DHT22;15704;48.834;8.736;2024-02-26T11:18:27;11.60;94.90
28484;DHT22;15704;48.834;8.736;2024-02-26T11:20:54;11.60;94.90
28484;DHT22;15704;48.834;8.736;2024-02-26T11:23:24;11.60;94.90
28484;DHT22;15704;48.834;8.736;2024-02-26T11:25:52;11.60;94.90
28484;DHT22;15704;48.834;8.736;2024-02-26T11:28:21;11.60;94.90
28484;DHT22;15704;48.834;8.736;2024-02-26T11:30:49;11.60;94.90
28484;DHT22;15704;48.834;8.736;2024-02-26T11:33:20;11.60;94.90
28484;DHT22;15704;48.834;8.736;2024-02-26T11:35:47;11.60;94.90
28484;DHT22;15704;48.834;8.736;2024-02-26T11:38:20;11.60;94.90
28484;DHT22;15704;48.834;8.736;2024-02-26T11:40:51;11.60;94.90
28484;DHT22;15704;48.834;8.736;2024-02-26T11:43:48;11.60;95.00
28484;DHT22;15704;48.834;8.736;2024-02-26T11:46:32;11.60;94.90
28484;DHT22;15704;48.834;8.736;2024-02-26T11:49:01;11.60;94.90
28484;DHT22;15704;48.834;8.736;2024-02-26T11:51:34;11.60;95.00
28484;DHT22;15704;48.834;8.736;2024-02-26T11:54:01;11.60;95.10
28484;DHT22;15704;48.834;8.736;2024-02-26T11:56:28;11.60;95.00
28484;DHT22;15704;48.834;8.736;2024-02-26T12:04:27;11.60;95.00
28484;DHT22;15704;48.834;8.736;2024-02-26T12:07:02;11.60;95.00
28484;DHT22;15704;48.834;8.736;2024-02-26T12:09:40;11.60;95.00
28484;DHT22;15704;48.834;8.736;2024-02-26T12:12:10;11.60;95.00
28484;DHT22;15704;48.834;8.736;2024-02-26T12:14:38;11.60;95.00
28484;DHT22;15704;48.834;8.736;2024-02-26T12:17:19;11.60;95.10
28484;DHT22;15704;48.834;8.736;2024-02-26T12:19:46;11.60;95.10
28484;DHT22;15704;48.834;8.736;2024-02-26T12:22:14;11.60;95.10
28484;DHT22;15704;48.834;8.736;2024-02-26T12:24:42;11.60;95.10
28484;DHT22;15704;48.834;8.736;2024-02-26T12:27:09;11.60;95.10
28484;DHT22;15704;48.834;8.736;2024-02-26T12:29:36;11.50;95.10
28484;DHT22;15704;48.834;8.736;2024-02-26T12:32:06;11.50;95.10
28484;DHT22;15704;48.834;8.736;2024-02-26T12:34:34;11.50;95.20
28484;DHT22;15704;48.834;8.736;2024-02-26T12:37:01;11.50;95.20
28484;DHT22;15704;48.834;8.736;2024-02-26T12:39:28;11.50;95.20
28484;DHT22;15704;48.834;8.736;2024-02-26T12:41:58;11.50;95.20
28484;DHT22;15704;48.834;8.736;2024-02-26T12:44:26;11.50;95.30
28484;DHT22;15704;48.834;8.736;2024-02-26T12:47:03;11.50;95.30
28484;DHT22;15704;48.834;8.736;2024-02-26T12:49:31;11.50;95.30
28484;DHT22;15704;48.834;8.736;2024-02-26T12:51:58;11.50;95.30
28484;DHT22;15704;48.834;8.736;2024-02-26T12:54:30;11.50;95.30
28484;DHT22;15704;48.834;8.736;2024-02-26T12:57:02;11.50;95.30
28484;DHT22;15704;48.834;8.736;2024-02-26T12:59:30;11.50;95.30
28484;DHT22;15704;48.834;8.736;2024-02-26T13:01:57;11.50;95.30
28484;DHT22;15704;48.834;8.736;2024-02-26T13:04:27;11.50;95.30
28484;DHT22;15704;48.834;8.736;2024-02-26T13:06:57;11.60;95.30
28484;DHT22;15704;48.834;8.736;2024-02-26T13:09:34;11.60;95.30
28484;DHT22;15704;48.834;8.736;2024-02-26T13:12:05;11.50;95.30
28484;DHT22;15704;48.834;8.736;2024-02-26T13:14:32;11.60;95.70
28484;DHT22;15704;48.834;8.736;2024-02-26T13:17:01;11.60;95.40
28484;DHT22;15704;48.834;8.736;2024-02-26T13:19:28;11.60;95.40
28484;DHT22;15704;48.834;8.736;2024-02-26T13:21:55;11.60;95.40
28484;DHT22;15704;48.834;8.736;2024-02-26T13:24:22;11.60;95.50
28484;DHT22;15704;48.834;8.736;2024-02-26T13:26:55;11.60;95.50
28484;DHT22;15704;48.834;8.736;2024-02-26T13:29:23;11.60;95.50
28484;DHT22;15704;48.834;8.736;2024-02-26T13:31:58;11.60;95.50
28484;DHT22;15704;48.834;8.736;2024-02-26T13:34:28;11.50;95.50
28484;DHT22;15704;48.834;8.736;2024-02-26T13:37:00;11.50;95.60
28484;DHT22;15704;48.834;8.736;2024-02-26T13:39:27;11.50;95.60
28484;DHT22;15704;48.834;8.736;2024-02-26T13:41:55;11.50;95.60
28484;DHT22;15704;48.834;8.736;2024-02-26T13:44:23;11.50;95.60
28484;DHT22;15704;48.834;8.736;2024-02-26T13:46:50;11.50;95.60
28484;DHT22;15704;48.834;8.736;2024-02-26T13:49:17;11.50;95.70
28484;DHT22;15704;48.834;8.736;2024-02-26T13:51:44;11.50;95.70
28484;DHT22;15704;48.834;8.736;2024-02-26T13:54:11;11.50;95.70
28484;DHT22;15704;48.834;8.736;2024-02-26T13:56:40;11.50;95.70
28484;DHT22;15704;48.834;8.736;2024-02-26T13:59:06;11.50;95.70
28484;DHT22;15704;48.834;8.736;2024-02-26T14:01:34;11.50;95.80
28484;DHT22;15704;48.834;8.736;2024-02-26T14:04:00;11.50;95.80
28484;DHT22;15704;48.834;8.736;2024-02-26T14:06:29;11.50;95.80
28484;DHT22;15704;48.834;8.736;2024-02-26T14:08:58;11.50;95.90
28484;DHT22;15704;48.834;8.736;2024-02-26T14:11:25;11.50;95.80
28484;DHT22;15704;48.834;8.736;2024-02-26T14:13:52;11.50;95.80
28484;DHT22;15704;48.834;8.736;2024-02-26T14:16:20;11.50;95.80
28484;DHT22;15704;48.834;8.736;2024-02-26T14:18:47;11.60;95.80
28484;DHT22;15704;48.834;8.736;2024-02-26T14:21:14;11.50;95.80
28484;DHT22;15704;48.834;8.736;2024-02-26T14:23:41;11.50;95.80
28484;DHT22;15704;48.834;8.736;2024-02-26T14:26:11;11.60;95.90
28484;DHT22;15704;48.834;8.736;2024-02-26T14:28:38;11.60;95.90
28484;DHT22;15704;48.834;8.736;2024-02-26T14:31:06;11.60;95.90
28484;DHT22;15704;48.834;8.736;2024-02-26T14:33:34;11.60;95.90
28484;DHT22;15704;48.834;8.736;2024-02-26T14:36:01;11.50;95.90
28484;DHT22;15704;48.834;8.736;2024-02-26T14:38:28;11.60;95.90
28484;DHT22;15704;48.834;8.736;2024-02-26T14:40:55;11.60;96.00
28484;DHT22;15704;48.834;8.736;2024-02-26T14:43:22;11.60;96.00
28484;DHT22;15704;48.834;8.736;2024-02-26T14:45:49;11.50;96.10
28484;DHT22;15704;48.834;8.736;2024-02-26T14:48:16;11.60;96.10
28484;DHT22;15704;48.834;8.736;2024-02-26T14:50:43;11.50;96.20
28484;DHT22;15704;48.834;8.736;2024-02-26T14:53:09;11.60;96.40
28484;DHT22;15704;48.834;8.736;2024-02-26T14:55:36;11.60;96.60
28484;DHT22;15704;48.834;8.736;2024-02-26T14:58:06;11.50;96.70
28484;DHT22;15704;48.834;8.736;2024-02-26T15:00:33;11.50;96.80
28484;DHT22;15704;48.834;8.736;2024-02-26T15:03:01;11.50;96.90
28484;DHT22;15704;48.834;8.736;2024-02-26T15:05:28;11.60;97.10
28484;DHT22;15704;48.834;8.736;2024-02-26T15:07:55;11.50;97.10
28484;DHT22;15704;48.834;8.736;2024-02-26T15:10:22;11.60;97.30
28484;DHT22;15704;48.834;8.736;2024-02-26T15:12:49;11.60;97.20
28484;DHT22;15704;48.834;8.736;2024-02-26T15:15:17;11.60;97.20
28484;DHT22;15704;48.834;8.736;2024-02-26T15:17:44;11.60;97.30
28484;DHT22;15704;48.834;8.736;2024-02-26T15:20:11;11.60;97.30
28484;DHT22;15704;48.834;8.736;2024-02-26T15:22:38;11.60;97.40
28484;DHT22;15704;48.834;8.736;2024-02-26T15:25:05;11.60;97.40
28484;DHT22;15704;48.834;8.736;2024-02-26T15:27:32;11.60;97.40
28484;DHT22;15704;48.834;8.736;2024-02-26T15:29:59;11.60;97.40
28484;DHT22;15704;48.834;8.736;2024-02-26T15:32:27;11.60;97.50
28484;DHT22;15704;48.834;8.736;2024-02-26T15:34:54;11.60;97.40
28484;DHT22;15704;48.834;8.736;2024-02-26T15:37:22;11.60;97.40
28484;DHT22;15704;48.834;8.736;2024-02-26T15:39:48;11.50;97.30